Map

Track Data

SID SEASON NUMBER BASIN SUBBASIN NAME ISO_TIME NATURE LAT LON WMO_WIND WMO_PRES WMO_AGENCY TRACK_TYPE DIST2LAND LANDFALL IFLAG USA_AGENCY USA_ATCF_ID USA_LAT USA_LON USA_RECORD USA_STATUS USA_WIND USA_PRES USA_SSHS USA_R34_NE USA_R34_SE USA_R34_SW USA_R34_NW USA_R50_NE USA_R50_SE USA_R50_SW USA_R50_NW USA_R64_NE USA_R64_SE USA_R64_SW USA_R64_NW USA_POCI USA_ROCI USA_RMW USA_EYE TOKYO_LAT TOKYO_LON TOKYO_GRADE TOKYO_WIND TOKYO_PRES TOKYO_R50_DIR TOKYO_R50_LONG TOKYO_R50_SHORT TOKYO_R30_DIR TOKYO_R30_LONG TOKYO_R30_SHORT TOKYO_LAND CMA_LAT CMA_LON CMA_CAT CMA_WIND CMA_PRES HKO_LAT HKO_LON HKO_CAT HKO_WIND HKO_PRES NEWDELHI_LAT NEWDELHI_LON NEWDELHI_GRADE NEWDELHI_WIND NEWDELHI_PRES NEWDELHI_CI NEWDELHI_DP NEWDELHI_POCI REUNION_LAT REUNION_LON REUNION_TYPE REUNION_WIND REUNION_PRES REUNION_TNUM REUNION_CI REUNION_RMW REUNION_R34_NE REUNION_R34_SE REUNION_R34_SW REUNION_R34_NW REUNION_R50_NE REUNION_R50_SE REUNION_R50_SW REUNION_R50_NW REUNION_R64_NE REUNION_R64_SE REUNION_R64_SW REUNION_R64_NW BOM_LAT BOM_LON BOM_TYPE BOM_WIND BOM_PRES BOM_TNUM BOM_CI BOM_RMW BOM_R34_NE BOM_R34_SE BOM_R34_SW BOM_R34_NW BOM_R50_NE BOM_R50_SE BOM_R50_SW BOM_R50_NW BOM_R64_NE BOM_R64_SE BOM_R64_SW BOM_R64_NW BOM_ROCI BOM_POCI BOM_EYE BOM_POS_METHOD BOM_PRES_METHOD NADI_LAT NADI_LON NADI_CAT NADI_WIND NADI_PRES WELLINGTON_LAT WELLINGTON_LON WELLINGTON_WIND WELLINGTON_PRES DS824_LAT DS824_LON DS824_STAGE DS824_WIND DS824_PRES TD9636_LAT TD9636_LON TD9636_STAGE TD9636_WIND TD9636_PRES TD9635_LAT TD9635_LON TD9635_WIND TD9635_PRES TD9635_ROCI NEUMANN_LAT NEUMANN_LON NEUMANN_CLASS NEUMANN_WIND NEUMANN_PRES MLC_LAT MLC_LON MLC_CLASS MLC_WIND MLC_PRES USA_GUST BOM_GUST BOM_GUST_PER REUNION_GUST REUNION_GUST_PER USA_SEAHGT USA_SEARAD_NE USA_SEARAD_SE USA_SEARAD_SW USA_SEARAD_NW STORM_SPEED STORM_DIR
1975321S07102 1976 131 SI WA RAY 1975-11-17 00:00:00 TS -7.00000 102.200 20 1008 bom main 274 274 ______O__O____ -1 -7.00000 102.200 20 20 1008 1.00000 1.00000 -7.00000 102.200 TC 15 1008 7 255
1975321S07102 1976 131 SI WA RAY 1975-11-17 03:00:00 TS -7.09625 101.838 20 1008 bom main 306 306 ______O__P____ -1 -7.10000 101.800 20 20 1008 1.00000 -7.09250 101.875 TC 15 1007 7 254
1975321S07102 1976 131 SI WA RAY 1975-11-17 06:00:00 TS -7.18571 101.543 20 1007 bom main 334 334 ______O__O__O_ -1 -7.20000 101.500 20 20 1007 1.00000 -7.20000 101.500 TC 15 1007 -7.10000 101.800 TC 15 1007 8 251
1975321S07102 1976 131 SI WA RAY 1975-11-17 09:00:00 TS -7.34102 101.102 20 1007 bom main 371 371 ______O__P__P_ -1 -7.40000 101.000 20 20 1007 1.00000 -7.33504 101.050 TC 15 1006 -7.23504 101.407 TC 15 1006 7 254
1975321S07102 1976 131 SI WA RAY 1975-11-17 12:00:00 TS -7.37143 100.900 20 1006 bom main 393 393 O_____O__OO_O_ jtwc_sh SH021976 -7.00000 101.600 -1 -7.50000 100.600 20 20 1006 1.00000 -7.50000 100.600 TC 15 1006 -7.00000 101.600 2 -7.40000 101.000 TC 15 1006 4 247
1975321S07102 1976 131 SI WA RAY 1975-11-17 15:00:00 TS -7.48108 100.763 main 408 408 P_____P__PP_P_ SH021976 -7.09559 101.730 -1 -7.70001 100.213 20 22 1005 -7.70746 100.220 TC 17 1005 -7.12368 101.291 2 -7.60752 100.578 TC 17 1005 4 234
1975321S07102 1976 131 SI WA RAY 1975-11-17 18:00:00 TS -7.62860 100.536 25 1005 bom main 437 437 O_____O__OP_O_ jtwc_sh SH021976 -7.20000 101.800 -1 -7.90000 99.9000 20 25 1005 1.50000 -7.90000 99.9000 TC 20 1005 -7.24779 100.995 2 -7.80000 100.200 TC 20 1005 7 244
1975321S07102 1976 131 SI WA RAY 1975-11-17 21:00:00 TS -7.77269 100.160 25 1004 bom main 475 475 P_____O__PP_P_ SH021976 -7.32049 101.760 -1 -8.00000 99.7000 20 25 1004 1.50000 -8.01497 99.6275 TC 22 1004 -7.37300 100.727 2 -7.91494 99.9274 TC 22 1004 8 249
1975321S07102 1976 131 SI WA RAY 1975-11-18 00:00:00 TS -7.92500 99.7500 25 1003 bom main 512 512 P_____O__OO_O_ SH021976 -7.45765 101.613 -1 -8.10000 99.4000 20 25 1003 2.00000 2.00000 -8.10000 99.4000 TC 25 1003 -7.50000 100.500 2 -8.00000 99.7000 TC 25 1003 7 247
1975321S07102 1976 131 SI WA RAY 1975-11-18 03:00:00 TS -8.03261 99.5351 25 1002 bom main 543 543 P_____O__PP_P_ SH021976 -7.61038 101.372 -1 -8.20000 99.2000 20 25 1002 2.00000 -8.19999 99.1850 TC 27 1002 -7.63045 100.320 2 -8.10001 99.4350 TC 25 1002 5 242
1975321S07102 1976 131 SI WA RAY 1975-11-18 06:00:00 TS -8.14244 99.3412 25 1001 bom main 566 566 P_____O__OP_O_ SH021976 -7.77753 101.051 -1 -8.30000 99.0000 20 25 1001 2.00000 -8.30000 99.0000 TC 30 1001 -7.76975 100.165 2 -8.20000 99.2000 TC 25 1001 4 236
1975321S07102 1976 131 SI WA RAY 1975-11-18 09:00:00 TS -8.25603 99.1985 30 1000 bom main 590 590 P_____O__PP_P_ SH021976 -7.95794 100.664 -1 -8.40000 98.9000 20 30 1000 2.50000 -8.39998 98.8500 TC 30 1000 -7.92418 100.002 2 -8.29996 99.0425 TC 27 1000 4 234
1975321S07102 1976 131 SI WA RAY 1975-11-18 12:00:00 TS -8.37500 99.0250 30 999 bom main 613 613 P_____O__OO_O_ SH021976 -8.15043 100.226 -1 -8.50000 98.7000 20 30 999 2.50000 -8.50000 98.7000 TC 30 999 -8.10000 99.8000 2 -8.40000 98.9000 TC 30 999 5 238
1975321S07102 1976 131 SI WA RAY 1975-11-18 15:00:00 TS -8.49607 98.8116 30 998 bom main 635 635 P_____O__PP_P_ SH021976 -8.35389 99.7500 -1 -8.60000 98.5000 20 30 998 2.50000 -8.59251 98.5000 TC 32 998 -8.29925 99.5464 2 -8.49251 98.7000 TC 32 998 5 240
1975321S07102 1976 131 SI WA RAY 1975-11-18 18:00:00 TS -8.62994 98.5868 35 997 bom main 658 658 P_____O__OP_O_ SH021976 -8.56721 99.2505 -1 -8.70000 98.3000 30 35 997 3.00000 -8.70000 98.3000 TC 35 997 -8.51977 99.2472 2 -8.60000 98.5000 TC 35 997 5 236
1975321S07102 1976 131 SI WA RAY 1975-11-18 21:00:00 TS -8.78884 98.3711 35 996 bom main 689 689 P_____O__PP_P_ SH021976 -8.78939 98.7417 -1 -8.80000 98.1000 30 35 996 3.00000 -8.84998 98.1425 TC 37 995 -8.75541 98.8994 2 -8.74998 98.3425 TC 37 996 5 230
1975321S07102 1976 131 SI WA RAY 1975-11-19 00:00:00 TS -8.97500 98.1750 40 994 bom main 720 720 P_____O__OO_O_ SH021976 -9.01946 98.2376 -1 -9.00000 98.0000 30 40 994 3.00000 3.00000 -9.00000 98.0000 TC 40 994 -9.00000 98.5000 2 -8.90000 98.2000 TC 40 995 5 230
1975321S07102 1976 131 SI WA RAY 1975-11-19 03:00:00 TS -9.13144 97.9631 40 994 bom main 743 743 P_____O__PP_P_ SH021976 -9.25658 97.7523 -1 -9.10000 97.9000 30 40 994 3.00000 -9.10749 97.8500 TC 40 993 -9.25168 97.9372 2 -9.00749 98.0500 TC 40 994 7 241
1975321S07102 1976 131 SI WA RAY 1975-11-19 06:00:00 TS -9.30171 97.5887 40 993 bom main 788 788 O_____O__OP_O_ jtwc_sh SH021976 -9.50000 97.3000 -1 -9.20000 97.7000 30 40 993 3.00000 -9.20000 97.7000 TC 40 993 -9.50853 97.3435 2 -9.10000 97.9000 TC 40 993 8 243
1975321S07102 1976 131 SI WA RAY 1975-11-19 09:00:00 TS -9.48834 97.2542 40 992 bom main 827 827 P_____O__PP_P_ SH021976 -9.74773 96.7949 -1 -9.30000 97.6000 30 40 992 3.00000 -9.29999 97.5500 TC 42 992 -9.76096 96.8279 2 -9.19999 97.7500 TC 42 992 7 237
1975321S07102 1976 131 SI WA RAY 1975-11-19 12:00:00 TS -9.68333 96.9833 45 991 bom main 866 866 O_____O__OO_O_ jtwc_sh SH021976 -10.0000 96.5000 -1 -9.40000 97.4000 30 45 991 3.00000 -9.40000 97.4000 TC 45 991 -10.0000 96.5000 2 -9.30000 97.6000 TC 45 991 5 219
1975321S07102 1976 131 SI WA RAY 1975-11-19 15:00:00 TS -9.86476 96.9509 45 991 bom main 882 882 P_____O__PP_P_ SH021976 -10.2650 96.6098 -1 -9.50000 97.3000 30 45 991 3.00000 -9.49999 97.2500 TC 45 990 -10.2211 96.5088 2 -9.39999 97.4500 TC 45 990 4 0
1975321S07102 1976 131 SI WA RAY 1975-11-19 18:00:00 TS -10.0329 96.9944 50 990 bom main 891 891 O_____O__OP_O_ jtwc_sh SH021976 -10.5000 96.9000 -1 -9.60000 97.1000 30 50 990 3.50000 -9.60000 97.1000 TC 45 990 -10.4278 96.7090 2 -9.50000 97.3000 TC 45 990 3 162
1975321S07102 1976 131 SI WA RAY 1975-11-19 21:00:00 TS -10.1055 97.0360 50 989 bom main 899 899 P_____O__PP_P_ SH021976 -10.6693 97.1144 -1 -9.70000 97.0000 30 50 989 3.50000 -9.70749 96.9500 TC 47 989 -10.6206 97.0047 2 -9.59999 97.1500 TC 47 989 1 171
1975321S07102 1976 131 SI WA RAY 1975-11-20 00:00:00 TS -10.1111 97.0111 50 988 bom main 899 891 O_____O__OO_O_ jtwc_sh SH021976 -10.8000 97.3000 -1 -9.80000 96.8000 30 50 988 3.50000 -9.80000 96.8000 TC 50 988 -10.8000 97.3000 2 -9.70000 97.0000 TC 50 988 1 307
1975321S07102 1976 131 SI WA RAY 1975-11-20 03:00:00 TS -10.0232 96.9199 50 987 bom main 898 897 P_____O__PP_P_ SH021976 -10.9297 97.4008 -1 -9.80000 96.7000 30 50 987 3.50000 3.50000 -9.84997 96.6650 TC 50 987 -10.9543 97.3608 2 -9.80749 96.8500 TC 52 987 5 296
1975321S07102 1976 131 SI WA RAY 1975-11-20 06:00:00 TS -9.90000 96.5667 50 986 bom main 912 912 P_____O__OP_O_ SH021976 -11.0443 97.4221 -1 -9.90000 96.5000 30 50 986 3.50000 -9.90000 96.5000 TC 50 986 -11.0868 97.3510 2 -9.90000 96.7000 TC 55 986 5 274
1975321S07102 1976 131 SI WA RAY 1975-11-20 09:00:00 TS -9.98332 96.3767 50 986 bom main 936 936 P_____O__PP_P_ SH021976 -11.1465 97.3709 -1 -10.0000 96.3000 30 50 986 3.50000 -9.99997 96.2800 TC 52 985 -11.2009 97.2765 2 -9.94999 96.5500 TC 55 985 5 249
1975321S07102 1976 131 SI WA RAY 1975-11-20 12:00:00 TS -10.0667 96.1333 50 985 bom main 967 967 P_____O__OP_O_ SH021976 -11.2389 97.2539 -1 -10.1000 96.0000 30 50 985 3.50000 -10.1000 96.0000 TC 55 985 -11.2998 97.1435 2 -10.0000 96.4000 TC 55 985 5 251
1975321S07102 1976 131 SI WA RAY 1975-11-20 15:00:00 TS -10.1525 95.8692 55 984 bom main 990 990 P_____O__PP_P_ SH021976 -11.3239 97.0779 -1 -10.2000 95.7000 30 55 984 4.00000 -10.1650 95.6575 TC 55 984 -11.3870 96.9581 2 -10.0925 96.2500 TC 55 984 6 257
1975321S07102 1976 131 SI WA RAY 1975-11-20 18:00:00 TS -10.2000 95.5667 55 983 bom main 1014 1014 P_____O__OP_O_ SH021976 -11.4041 96.8498 -1 -10.2000 95.3000 30 55 983 4.00000 -10.2000 95.3000 TC 55 983 -11.4655 96.7263 2 -10.2000 96.1000 TC 55 983 6 262
1975321S07102 1976 131 SI WA RAY 1975-11-20 21:00:00 TS -10.2258 95.3091 55 982 bom main 1030 1030 P_____O__PP_P_ SH021976 -11.4821 96.5763 -1 -10.2000 95.0000 30 55 982 4.00000 -10.1850 94.9774 TC 57 982 -11.5387 96.4543 2 -10.2925 95.9500 TC 57 982 5 262
1975321S07102 1976 131 SI WA RAY 1975-11-21 00:00:00 TS -10.2667 95.0667 55 981 bom main 1050 1050 P_____O__OP_O_ SH021976 -11.5602 96.2643 -1 -10.2000 94.7000 30 55 981 4.00000 4.00000 -10.2000 94.7000 TC 60 981 -11.6098 96.1482 2 -10.4000 95.8000 TC 60 981 4 248
1975321S07102 1976 131 SI WA RAY 1975-11-21 03:00:00 TS -10.3875 94.9117 60 980 bom main 1069 1069 P_____O__PP_P_ SH021976 -11.6411 95.9207 -1 -10.3000 94.6000 30 60 980 4.00000 -10.3200 94.4775 TC 60 980 -11.6821 95.8140 2 -10.5425 95.6575 TC 62 980 5 230
1975321S07102 1976 131 SI WA RAY 1975-11-21 06:00:00 TS -10.5667 94.7000 60 979 bom main 1099 1099 P_____O__OP_O_ SH021976 -11.7272 95.5522 -1 -10.5000 94.3000 30 60 979 4.00000 -10.5000 94.3000 TC 60 979 -11.7588 95.4579 2 -10.7000 95.5000 TC 65 979 5 227
1975321S07102 1976 131 SI WA RAY 1975-11-21 09:00:00 TS -10.7475 94.5217 60 978 bom main 1119 1119 P_____O__PP_P_ SH021976 -11.8211 95.1656 -1 -10.7000 94.1000 30 60 978 4.00000 -10.7000 94.1500 TC 62 978 -11.8433 95.0860 2 -10.8425 95.3150 TC 65 978 5 222
1975321S07102 1976 131 SI WA RAY 1975-11-21 12:00:00 TS -10.9333 94.3667 65 977 bom main 1144 1144 P_____O__OP_O_ SH021976 -11.9254 94.7679 -1 -10.9000 94.0000 40 65 977 4.50000 -10.9000 94.0000 TC 65 977 -11.9389 94.7042 2 -11.0000 95.1000 TC 65 977 5 228
1975321S07102 1976 131 SI WA RAY 1975-11-21 15:00:00 TS -11.0783 94.1525 65 976 bom main 1174 1174 P_____O__PP_P_ SH021976 -12.0428 94.3656 -1 -11.0000 93.8000 40 65 976 4.50000 -11.0350 93.7925 TC 65 976 -12.0490 94.3187 2 -11.2000 94.8650 TC 67 976 5 232
1975321S07102 1976 131 SI WA RAY 1975-11-21 18:00:00 TS -11.2667 93.9333 65 975 bom main 1209 1209 P_____O__OP_O_ SH021976 -12.1759 93.9658 -1 -11.2000 93.6000 40 65 975 4.50000 -11.2000 93.6000 TC 65 975 -12.1769 93.9355 2 -11.4000 94.6000 TC 70 975 6 213
1975321S07102 1976 131 SI WA RAY 1975-11-21 21:00:00 TS -11.5872 93.8100 70 974 bom main 1243 1243 P_____O__PP_P_ SH021976 -12.3274 93.5750 -1 -11.6000 93.5000 40 70 974 4.50000 -11.4775 93.4925 TC 67 974 -12.3261 93.5606 2 -11.5425 94.3074 TC 70 974 9 212
1975321S07102 1976 131 SI WA RAY 1975-11-22 00:00:00 TS -12.0111 93.4667 70 973 bom main 1298 1298 O_____O__OO_O_ jtwc_sh SH021976 -12.5000 93.2000 -1 -11.8000 93.4000 40 70 973 4.50000 -11.8000 93.4000 TC 70 973 -12.5000 93.2000 2 -11.7000 94.0000 TC 70 973 10 221
1975321S07102 1976 131 SI WA RAY 1975-11-22 03:00:00 TS -12.3638 93.1255 70 973 bom main 1358 1358 P_____O__PP_P_ SH021976 -12.6881 92.8440 -1 -12.1000 93.2000 40 70 973 4.50000 4.50000 -12.0999 93.2874 TC 67 973 -12.6341 92.9124 2 -11.9274 93.7074 TC 70 973 9 225
1975321S07102 1976 131 SI WA RAY 1975-11-22 06:00:00 TS -12.6321 92.8401 70 974 bom main 1394 1394 O_____O__OP_O_ jtwc_sh SH021976 -12.9000 92.5000 -1 -12.4000 93.1000 40 70 974 4.50000 -12.4000 93.1000 TC 65 974 -12.8061 92.6080 2 -12.2000 93.4000 TC 70 973 8 228
1975321S07102 1976 131 SI WA RAY 1975-11-22 09:00:00 TS -12.8642 92.5504 65 975 bom main 1434 1434 P_____O__PP_P_ SH021976 -13.0973 92.2221 -1 -12.7000 92.8000 40 65 975 4.50000 -12.6699 92.8023 TC 65 975 -13.0501 92.2747 2 -12.4699 93.0723 TC 67 974 8 229
1975321S07102 1976 131 SI WA RAY 1975-11-22 12:00:00 TS -13.1667 92.2000 65 977 bom main 1484 1484 O_____O__OO_O_ jtwc_sh SH021976 -13.4000 91.9000 -1 -13.0000 92.4000 40 65 977 4.50000 -13.0000 92.4000 TC 65 977 -13.4000 91.9000 2 -12.8000 92.7000 TC 65 976 11 226
1975321S07102 1976 131 SI WA RAY 1975-11-22 15:00:00 TS -13.6386 91.7197 65 978 bom main 1550 1550 P_____O__PP_P_ SH021976 -13.8901 91.4226 -1 -13.5000 91.9000 40 65 978 4.50000 -13.4626 91.9151 TC 62 978 -13.8688 91.3929 2 -13.2200 92.2650 TC 65 977 14 223
1975321S07102 1976 131 SI WA RAY 1975-11-22 18:00:00 TS -14.1907 91.2093 60 979 bom main 1636 1636 O_____O__OP_O_ jtwc_sh SH021976 -14.5000 90.9000 -1 -14.0000 91.4000 30 60 979 4.00000 -14.0000 91.4000 TC 60 979 -14.4440 90.8555 2 -13.7000 91.8000 TC 65 978 15 221
1975321S07102 1976 131 SI WA RAY 1975-11-22 21:00:00 TS -14.7645 90.7118 60 980 bom main 1721 1721 P_____O__PP_P_ SH021976 -15.1201 90.3828 -1 -14.5000 90.9000 30 60 980 4.00000 -14.5575 90.9126 TC 60 980 -15.0970 90.3651 2 -14.1925 91.3275 TC 62 979 15 216
1975321S07102 1976 131 SI WA RAY 1975-11-23 00:00:00 TS -15.3833 90.3167 60 981 bom main 1801 1801 O_____O__OO_O_ jtwc_sh SH021976 -15.8000 90.0000 -1 -15.1000 90.5000 30 60 981 4.00000 -15.1000 90.5000 TC 60 981 -15.8000 90.0000 2 -14.7000 90.9000 TC 60 980 14 205
1975321S07102 1976 131 SI WA RAY 1975-11-23 03:00:00 TS -15.9824 90.1148 55 983 bom main 1869 1869 P_____O__PP_P_ SH021976 -16.5348 89.8746 -1 -15.5000 90.2000 30 55 983 4.00000 4.00000 -15.5572 90.2568 TC 57 982 -16.5750 89.9132 2 -15.1924 90.5697 TC 60 981 13 194
1975321S07102 1976 131 SI WA RAY 1975-11-23 06:00:00 TS -16.6136 90.0085 55 983 bom main 1932 1932 O_____O__OP_O_ jtwc_sh SH021976 -17.3000 89.9000 -1 -16.0000 90.0000 30 55 983 4.00000 -16.0000 90.0000 TC 55 983 -17.3814 89.9507 2 -15.7000 90.3000 TC 60 982 13 192
1975321S07102 1976 131 SI MM RAY 1975-11-23 09:00:00 TS -17.2596 89.8333 55 985 bom main 2010 2010 P_____O__PP_P_ SH021976 -18.0949 89.9794 -1 -16.5000 89.5000 30 55 985 4.00000 -16.4778 89.5003 TC 52 986 -18.1471 90.0134 2 -16.2425 90.0275 TC 55 984 12 198
1975321S07102 1976 131 SI MM RAY 1975-11-23 12:00:00 TS -17.7818 89.6000 50 989 bom main 2069 2069 O_____O__OO_O_ jtwc_sh SH021976 -18.8000 90.0000 -1 -17.0000 89.0000 30 50 989 3.50000 -17.0000 89.0000 TC 50 989 -18.8000 90.0000 2 -16.8000 89.8000 TC 50 987 11 207
1975321S07102 1976 131 SI MM RAY 1975-11-23 15:00:00 TS -18.2206 89.3124 50 993 bom main 2124 2124 P_____O__PP_P_ SH021976 -19.3102 89.8157 -1 -17.6000 88.7000 30 50 993 3.50000 -17.5848 88.7121 TC 45 992 -19.2357 89.7046 2 -17.3500 89.6274 TC 45 990 10 214
1975321S07102 1976 131 SI MM RAY 1975-11-23 18:00:00 TS -18.6013 89.0176 40 995 bom main 2179 2179 O_____O__OP_O_ jtwc_sh SH021976 -19.7000 89.5000 -1 -18.2000 88.5000 30 40 995 3.00000 -18.2000 88.5000 TC 40 995 -19.5560 89.3291 2 -17.9000 89.5000 TC 40 993 10 217
1975321S07102 1976 131 SI MM RAY 1975-11-23 21:00:00 TS -18.9839 88.7024 35 997 bom main 2233 2233 ______O__PP_P_ SH021976 -1 -18.9000 88.3000 30 35 997 3.00000 -18.7850 88.1683 TC 35 997 -19.8232 88.9639 2 -18.4275 89.3775 TC 37 995 10 209
1975321S07102 1976 131 SI MM RAY 1975-11-24 00:00:00 TS -19.4750 88.5000 30 999 bom main 2292 2292 ______O__OO_O_ -1 -19.4000 88.0000 20 30 999 2.50000 2.50000 -19.4000 88.0000 TC 30 999 -20.1000 88.7000 2 -19.0000 89.3000 TC 35 997 11 187
1975321S07102 1976 131 SI MM RAY 1975-11-24 03:00:00 TS -20.0854 88.5516 30 1000 bom main 2329 2329 ______O__PP_P_ -1 -20.1000 88.2000 20 30 1000 2.50000 -20.1073 88.1721 TC 30 999 -20.4569 88.5717 2 -19.6775 89.2627 TC 32 998 13 168
1975321S07102 1976 131 SI MM RAY 1975-11-24 06:00:00 TS -20.7095 88.7668 30 1000 bom main 2354 2354 ______O__OP_O_ -1 -20.8000 88.6000 20 30 1000 2.50000 -20.8000 88.6000 TC 30 1000 -20.8381 88.5672 2 -20.4000 89.3000 TC 30 999 13 157
1975321S07102 1976 131 SI MM RAY 1975-11-24 09:00:00 TS -21.2382 89.0642 30 1001 bom main 2366 2366 ______O__PP_P_ -1 -21.2000 89.0000 20 30 1001 2.50000 -21.3878 89.1698 TC 25 1002 -21.2503 88.7040 2 -21.1148 89.3829 TC 27 1000 13 147
1975321S07102 1976 131 SI MM RAY 1975-11-24 12:00:00 TS -21.8250 89.5500 25 1004 bom main 2372 2372 ______O__OO_O_ -1 -21.9000 89.8000 20 25 1004 2.00000 -21.9000 89.8000 TC 20 1004 -21.7000 89.0000 2 -21.8000 89.6000 TC 25 1002 14 142
1975321S07102 1976 131 SI MM RAY 1975-11-24 15:00:00 TS -22.3037 89.9617 25 1006 bom main 2380 2332 ______O__PP_P_ -1 -22.2000 90.1000 20 25 1006 2.00000 -22.3645 90.3008 TC 17 1005 -22.1902 89.4637 2 -22.4599 89.9821 TC 22 1003 14 138
1975321S07102 1976 131 SI WA RAY 1975-11-24 18:00:00 TS -22.8279 90.5409 25 1006 bom main 2332 2262 ______O__OP_O_ -1 -22.8000 90.8000 20 25 1006 1.50000 -22.8000 90.8000 TC 15 1006 -22.7117 90.0634 2 -23.0000 90.5000 TC 20 1005 15 131
1975321S07102 1976 131 SI WA RAY 1975-11-24 21:00:00 TS -23.2634 91.1539 25 1005 bom main 2250 2180 ______O__PP_P_ -1 -23.2000 91.4000 20 25 1005 1.50000 -23.2457 91.3739 TC 15 1006 -23.2522 90.7566 2 -23.3555 91.0850 TC 17 1005 15 127
1975321S07102 1976 131 SI WA RAY 1975-11-25 00:00:00 TS -23.7000 91.8000 20 1006 bom main 2180 ______O__OO_O_ -1 -23.7000 92.0000 20 20 1006 1.00000 -23.7000 92.0000 TC 15 1006 -23.8000 91.5000 2 -23.6000 91.7000 TC 15 1006 15 126

About IBTrACS Database

This database is a web-friendly format of International Best Track Archive for Climate Stewardship (IBTrACS), a global best track data archive curated by NOAA dating back to 1842.

Updated: 2021-10-21